RYR6831 LZIB-LIBD
Flight info
| Callsign | RYR6831 |
|---|---|
| Flight time | 1h 20m |
| Altitude | 36000 |
| Route | VAMOG DCT SIRDU DCT OSDUK DCT AIOSA DCT BANAV |
| Aircraft | B738/M-SADE3FGIJ1LRWY/SB1 |
Departure
| Time | 2026-05-08 07:59 |
|---|---|
| Airport | M. R. Štefánik Airport (LZIB) |
Arrival
| Time | 2026-05-08 09:19 |
|---|---|
| Airport | Bari Karol Wojtyła International Airport (LIBD) |
| Time | Latitude | Longitude | Altitude | Speed | Heading |
|---|---|---|---|---|---|
| 2026-05-08 07:31 | 48.16951 | 17.20141 | 440 ft | 0 kts | 314° |
| 2026-05-08 07:52 | 48.16938 | 17.20162 | 424 ft | 4 kts | 314° |
| 2026-05-08 07:53 | 48.16920 | 17.20192 | 426 ft | 4 kts | 292° |
| 2026-05-08 07:53 | 48.16919 | 17.20215 | 424 ft | 1 kts | 224° |
| 2026-05-08 07:55 | 48.16917 | 17.20211 | 424 ft | 4 kts | 224° |
| 2026-05-08 07:55 | 48.16868 | 17.20151 | 439 ft | 10 kts | 195° |
| 2026-05-08 07:55 | 48.16811 | 17.20215 | 426 ft | 11 kts | 135° |
| 2026-05-08 07:56 | 48.16744 | 17.20311 | 430 ft | 16 kts | 135° |
| 2026-05-08 07:56 | 48.16660 | 17.20313 | 423 ft | 15 kts | 220° |
| 2026-05-08 07:56 | 48.16582 | 17.20214 | 421 ft | 15 kts | 220° |
| 2026-05-08 07:56 | 48.16507 | 17.20117 | 424 ft | 14 kts | 220° |
| 2026-05-08 07:57 | 48.16423 | 17.20010 | 417 ft | 17 kts | 220° |
| 2026-05-08 07:57 | 48.16335 | 17.19896 | 433 ft | 16 kts | 221° |
| 2026-05-08 07:57 | 48.16246 | 17.19793 | 426 ft | 16 kts | 204° |
| 2026-05-08 07:57 | 48.16153 | 17.19845 | 424 ft | 15 kts | 134° |
| 2026-05-08 07:58 | 48.16107 | 17.19960 | 427 ft | 11 kts | 82° |
| 2026-05-08 07:58 | 48.16166 | 17.20069 | 429 ft | 19 kts | 44° |
| 2026-05-08 07:58 | 48.16440 | 17.20463 | 424 ft | 93 kts | 44° |
| 2026-05-08 07:58 | 48.17073 | 17.21371 | 420 ft | 157 kts | 44° |
| 2026-05-08 07:59 | 48.17955 | 17.22647 | 772 ft | 184 kts | 41° |
| 2026-05-08 07:59 | 48.18875 | 17.23976 | 1748 ft | 177 kts | 40° |
| 2026-05-08 07:59 | 48.19796 | 17.25304 | 2471 ft | 197 kts | 41° |
| 2026-05-08 07:59 | 48.20858 | 17.26823 | 2739 ft | 225 kts | 41° |
| 2026-05-08 08:00 | 48.21718 | 17.28851 | 3230 ft | 241 kts | 73° |
| 2026-05-08 08:00 | 48.21724 | 17.31391 | 3899 ft | 251 kts | 101° |
| 2026-05-08 08:00 | 48.21320 | 17.33955 | 4641 ft | 255 kts | 101° |
| 2026-05-08 08:00 | 48.20939 | 17.36571 | 5521 ft | 256 kts | 101° |
| 2026-05-08 08:01 | 48.20564 | 17.39190 | 6397 ft | 263 kts | 101° |
| 2026-05-08 08:01 | 48.20168 | 17.41971 | 6934 ft | 281 kts | 101° |
| 2026-05-08 08:01 | 48.19747 | 17.44879 | 7662 ft | 289 kts | 102° |
| 2026-05-08 08:01 | 48.19316 | 17.47846 | 8515 ft | 293 kts | 102° |
| 2026-05-08 08:02 | 48.18876 | 17.50860 | 9357 ft | 299 kts | 104° |
| 2026-05-08 08:02 | 48.17968 | 17.53655 | 10106 ft | 303 kts | 135° |
| 2026-05-08 08:02 | 48.16211 | 17.55455 | 10480 ft | 318 kts | 163° |
| 2026-05-08 08:02 | 48.14003 | 17.55939 | 10754 ft | 334 kts | 179° |
| 2026-05-08 08:03 | 48.11648 | 17.56291 | 11374 ft | 345 kts | 175° |
| 2026-05-08 08:03 | 48.09256 | 17.56788 | 12151 ft | 349 kts | 174° |
| 2026-05-08 08:03 | 48.06845 | 17.57347 | 12989 ft | 352 kts | 173° |
| 2026-05-08 08:03 | 48.04416 | 17.57940 | 13785 ft | 356 kts | 173° |
| 2026-05-08 08:04 | 48.01959 | 17.58555 | 14491 ft | 360 kts | 173° |
| 2026-05-08 08:04 | 47.99479 | 17.59185 | 15223 ft | 363 kts | 173° |
| 2026-05-08 08:04 | 47.96983 | 17.59821 | 15970 ft | 365 kts | 173° |
| 2026-05-08 08:04 | 47.94467 | 17.60464 | 16680 ft | 369 kts | 173° |
| 2026-05-08 08:05 | 47.91928 | 17.61113 | 17378 ft | 372 kts | 173° |
| 2026-05-08 08:05 | 47.89363 | 17.61768 | 18062 ft | 376 kts | 173° |
| 2026-05-08 08:05 | 47.86767 | 17.62430 | 18665 ft | 381 kts | 173° |
| 2026-05-08 08:05 | 47.84142 | 17.63098 | 19272 ft | 384 kts | 173° |
| 2026-05-08 08:06 | 47.81503 | 17.63770 | 19887 ft | 386 kts | 174° |
| 2026-05-08 08:06 | 47.78842 | 17.64448 | 20485 ft | 390 kts | 174° |
| 2026-05-08 08:06 | 47.76157 | 17.65130 | 21064 ft | 393 kts | 174° |
| 2026-05-08 08:06 | 47.73449 | 17.65817 | 21638 ft | 397 kts | 174° |
| 2026-05-08 08:07 | 47.70718 | 17.66509 | 22211 ft | 400 kts | 174° |
| 2026-05-08 08:07 | 47.67965 | 17.67205 | 22764 ft | 403 kts | 174° |
| 2026-05-08 08:07 | 47.65189 | 17.67907 | 23310 ft | 406 kts | 174° |
| 2026-05-08 08:07 | 47.62391 | 17.68614 | 23808 ft | 410 kts | 174° |
| 2026-05-08 08:08 | 47.59574 | 17.69325 | 24261 ft | 412 kts | 174° |
| 2026-05-08 08:08 | 47.56738 | 17.70040 | 24728 ft | 414 kts | 175° |
| 2026-05-08 08:08 | 47.53890 | 17.70757 | 25175 ft | 417 kts | 175° |
| 2026-05-08 08:08 | 47.51026 | 17.71478 | 25620 ft | 419 kts | 175° |
| 2026-05-08 08:09 | 47.48144 | 17.72202 | 26058 ft | 421 kts | 175° |
| 2026-05-08 08:09 | 47.45244 | 17.72930 | 26475 ft | 424 kts | 175° |
| 2026-05-08 08:09 | 47.42331 | 17.73660 | 26890 ft | 426 kts | 175° |
| 2026-05-08 08:09 | 47.39397 | 17.74394 | 27301 ft | 428 kts | 176° |
| 2026-05-08 08:10 | 47.36454 | 17.75131 | 27712 ft | 430 kts | 176° |
| 2026-05-08 08:10 | 47.33496 | 17.75870 | 28116 ft | 432 kts | 176° |
| 2026-05-08 08:10 | 47.30563 | 17.76601 | 28495 ft | 435 kts | 176° |
| 2026-05-08 08:10 | 47.27572 | 17.77346 | 28846 ft | 437 kts | 176° |
| 2026-05-08 08:11 | 47.24567 | 17.78095 | 29213 ft | 439 kts | 177° |
| 2026-05-08 08:11 | 47.21550 | 17.78846 | 29604 ft | 440 kts | 177° |
| 2026-05-08 08:11 | 47.18521 | 17.79599 | 29963 ft | 442 kts | 177° |
| 2026-05-08 08:11 | 47.15476 | 17.80354 | 30264 ft | 445 kts | 177° |
| 2026-05-08 08:12 | 47.12416 | 17.81111 | 30535 ft | 447 kts | 177° |
| 2026-05-08 08:12 | 47.09347 | 17.81872 | 30891 ft | 447 kts | 177° |
| 2026-05-08 08:12 | 47.06287 | 17.82631 | 31293 ft | 445 kts | 177° |
| 2026-05-08 08:12 | 47.03236 | 17.83387 | 31670 ft | 444 kts | 178° |
| 2026-05-08 08:13 | 47.00197 | 17.84139 | 32050 ft | 443 kts | 178° |
| 2026-05-08 08:13 | 46.97157 | 17.84889 | 32412 ft | 442 kts | 178° |
| 2026-05-08 08:13 | 46.94123 | 17.85636 | 32743 ft | 442 kts | 178° |
| 2026-05-08 08:13 | 46.91088 | 17.86381 | 33083 ft | 441 kts | 178° |
| 2026-05-08 08:14 | 46.88066 | 17.87124 | 33494 ft | 440 kts | 178° |
| 2026-05-08 08:14 | 46.85048 | 17.87864 | 33824 ft | 440 kts | 178° |
| 2026-05-08 08:14 | 46.82029 | 17.88603 | 34110 ft | 440 kts | 178° |
| 2026-05-08 08:14 | 46.79014 | 17.89340 | 34383 ft | 439 kts | 178° |
| 2026-05-08 08:15 | 46.76007 | 17.90076 | 34708 ft | 438 kts | 178° |
| 2026-05-08 08:15 | 46.73005 | 17.90810 | 34995 ft | 437 kts | 178° |
| 2026-05-08 08:15 | 46.70008 | 17.91541 | 35288 ft | 436 kts | 178° |
| 2026-05-08 08:15 | 46.67021 | 17.92269 | 35596 ft | 435 kts | 178° |
| 2026-05-08 08:16 | 46.64041 | 17.92994 | 35893 ft | 434 kts | 177° |
| 2026-05-08 08:16 | 46.61069 | 17.93717 | 36167 ft | 433 kts | 177° |
| 2026-05-08 08:16 | 46.58098 | 17.94437 | 36421 ft | 432 kts | 177° |
| 2026-05-08 08:16 | 46.55136 | 17.95156 | 36709 ft | 431 kts | 177° |
| 2026-05-08 08:17 | 46.52184 | 17.95871 | 36994 ft | 430 kts | 177° |
| 2026-05-08 08:17 | 46.46246 | 17.97303 | 37085 ft | 435 kts | 177° |
| 2026-05-08 08:18 | 46.40289 | 17.98742 | 37070 ft | 432 kts | 177° |
| 2026-05-08 08:18 | 46.34390 | 18.00166 | 37073 ft | 428 kts | 176° |
| 2026-05-08 08:19 | 46.28526 | 18.01575 | 37089 ft | 426 kts | 176° |
| 2026-05-08 08:19 | 46.23664 | 18.02739 | 37094 ft | 426 kts | 176° |
| 2026-05-08 08:20 | 46.17810 | 18.04138 | 37097 ft | 427 kts | 176° |
| 2026-05-08 08:20 | 46.11942 | 18.05539 | 37096 ft | 428 kts | 176° |
| 2026-05-08 08:21 | 46.06060 | 18.06941 | 37104 ft | 429 kts | 176° |
| 2026-05-08 08:21 | 46.00154 | 18.08345 | 37108 ft | 431 kts | 176° |
| 2026-05-08 08:22 | 45.94225 | 18.09752 | 37100 ft | 433 kts | 176° |
| 2026-05-08 08:22 | 45.88285 | 18.11160 | 37097 ft | 433 kts | 176° |
| 2026-05-08 08:23 | 45.82335 | 18.12566 | 37099 ft | 433 kts | 176° |
| 2026-05-08 08:23 | 45.76403 | 18.12930 | 37095 ft | 421 kts | 193° |
| 2026-05-08 08:24 | 45.70695 | 18.11514 | 37088 ft | 419 kts | 195° |
| 2026-05-08 08:24 | 45.64968 | 18.10054 | 37095 ft | 418 kts | 194° |
| 2026-05-08 08:25 | 45.59241 | 18.08629 | 37099 ft | 417 kts | 194° |
| 2026-05-08 08:25 | 45.53519 | 18.07229 | 37092 ft | 417 kts | 194° |
| 2026-05-08 08:26 | 45.47813 | 18.05835 | 37094 ft | 416 kts | 194° |
| 2026-05-08 08:26 | 45.42113 | 18.04459 | 37100 ft | 415 kts | 194° |
| 2026-05-08 08:27 | 45.36426 | 18.03087 | 37103 ft | 415 kts | 194° |
| 2026-05-08 08:27 | 45.30736 | 18.01715 | 37106 ft | 415 kts | 194° |
| 2026-05-08 08:28 | 45.25047 | 18.00345 | 37093 ft | 414 kts | 194° |
| 2026-05-08 08:28 | 45.19365 | 17.98980 | 37088 ft | 414 kts | 194° |
| 2026-05-08 08:29 | 45.13687 | 17.97617 | 37098 ft | 414 kts | 194° |
| 2026-05-08 08:29 | 45.08008 | 17.96257 | 37095 ft | 414 kts | 194° |
| 2026-05-08 08:30 | 45.02326 | 17.94900 | 37095 ft | 414 kts | 194° |
| 2026-05-08 08:30 | 44.93793 | 17.92866 | 37093 ft | 415 kts | 194° |
| 2026-05-08 08:31 | 44.88099 | 17.91513 | 37094 ft | 415 kts | 194° |
| 2026-05-08 08:31 | 44.82410 | 17.90163 | 37098 ft | 415 kts | 194° |
| 2026-05-08 08:32 | 44.76704 | 17.88813 | 37092 ft | 415 kts | 194° |
| 2026-05-08 08:32 | 44.71007 | 17.87466 | 37089 ft | 415 kts | 193° |
| 2026-05-08 08:33 | 44.65317 | 17.86125 | 37093 ft | 415 kts | 193° |
| 2026-05-08 08:33 | 44.59668 | 17.84796 | 37088 ft | 414 kts | 193° |
| 2026-05-08 08:34 | 44.53991 | 17.83462 | 37080 ft | 413 kts | 193° |
| 2026-05-08 08:34 | 44.48328 | 17.82134 | 37084 ft | 412 kts | 193° |
| 2026-05-08 08:35 | 44.42685 | 17.80813 | 37088 ft | 411 kts | 193° |
| 2026-05-08 08:35 | 44.37057 | 17.79500 | 37091 ft | 410 kts | 193° |
| 2026-05-08 08:36 | 44.31448 | 17.78194 | 37101 ft | 408 kts | 193° |
| 2026-05-08 08:36 | 44.25837 | 17.76893 | 37095 ft | 410 kts | 193° |
| 2026-05-08 08:37 | 44.20204 | 17.75582 | 37079 ft | 411 kts | 193° |
| 2026-05-08 08:37 | 44.14554 | 17.74270 | 37084 ft | 412 kts | 193° |
| 2026-05-08 08:38 | 44.08882 | 17.72959 | 37080 ft | 413 kts | 193° |
| 2026-05-08 08:38 | 44.03198 | 17.71647 | 37097 ft | 415 kts | 193° |
| 2026-05-08 08:39 | 43.97492 | 17.70332 | 37086 ft | 416 kts | 192° |
| 2026-05-08 08:39 | 43.91766 | 17.69016 | 37083 ft | 418 kts | 192° |
| 2026-05-08 08:40 | 43.86026 | 17.67700 | 37091 ft | 418 kts | 192° |
| 2026-05-08 08:40 | 43.80292 | 17.66387 | 37074 ft | 418 kts | 192° |
| 2026-05-08 08:41 | 43.74566 | 17.65079 | 37061 ft | 416 kts | 192° |
| 2026-05-08 08:41 | 43.68883 | 17.63783 | 37070 ft | 413 kts | 192° |
| 2026-05-08 08:42 | 43.63221 | 17.62487 | 37078 ft | 411 kts | 192° |
| 2026-05-08 08:42 | 43.57587 | 17.61210 | 37077 ft | 410 kts | 192° |
| 2026-05-08 08:43 | 43.51968 | 17.59938 | 37060 ft | 409 kts | 192° |
| 2026-05-08 08:43 | 43.46370 | 17.58672 | 37060 ft | 407 kts | 192° |
| 2026-05-08 08:44 | 43.40822 | 17.57419 | 37057 ft | 407 kts | 192° |
| 2026-05-08 08:44 | 43.35236 | 17.56158 | 37053 ft | 407 kts | 192° |
| 2026-05-08 08:45 | 43.29649 | 17.54900 | 37054 ft | 407 kts | 192° |
| 2026-05-08 08:45 | 43.24057 | 17.53643 | 37052 ft | 407 kts | 192° |
| 2026-05-08 08:46 | 43.18456 | 17.52387 | 37052 ft | 408 kts | 192° |
| 2026-05-08 08:46 | 43.12837 | 17.51129 | 37033 ft | 409 kts | 192° |
| 2026-05-08 08:47 | 43.07212 | 17.49872 | 37038 ft | 410 kts | 192° |
| 2026-05-08 08:47 | 43.01569 | 17.48614 | 36993 ft | 411 kts | 192° |
| 2026-05-08 08:48 | 42.98750 | 17.47986 | 36679 ft | 408 kts | 191° |
| 2026-05-08 08:48 | 42.95973 | 17.47370 | 36320 ft | 402 kts | 191° |
| 2026-05-08 08:48 | 42.93236 | 17.46762 | 35983 ft | 396 kts | 191° |
| 2026-05-08 08:48 | 42.90524 | 17.46161 | 35571 ft | 393 kts | 191° |
| 2026-05-08 08:49 | 42.87839 | 17.45565 | 35191 ft | 390 kts | 191° |
| 2026-05-08 08:49 | 42.85172 | 17.44972 | 34796 ft | 387 kts | 191° |
| 2026-05-08 08:49 | 42.82521 | 17.44385 | 34419 ft | 384 kts | 191° |
| 2026-05-08 08:49 | 42.79893 | 17.43803 | 34045 ft | 382 kts | 190° |
| 2026-05-08 08:50 | 42.77279 | 17.43225 | 33622 ft | 379 kts | 191° |
| 2026-05-08 08:50 | 42.74681 | 17.42651 | 33224 ft | 377 kts | 191° |
| 2026-05-08 08:50 | 42.72101 | 17.42081 | 32831 ft | 374 kts | 191° |
| 2026-05-08 08:50 | 42.69538 | 17.41516 | 32458 ft | 372 kts | 191° |
| 2026-05-08 08:51 | 42.66996 | 17.40956 | 32079 ft | 369 kts | 190° |
| 2026-05-08 08:51 | 42.64468 | 17.40399 | 31721 ft | 367 kts | 190° |
| 2026-05-08 08:51 | 42.61957 | 17.39846 | 31365 ft | 364 kts | 191° |
| 2026-05-08 08:51 | 42.59461 | 17.39298 | 31024 ft | 363 kts | 191° |
| 2026-05-08 08:52 | 42.56976 | 17.38752 | 30665 ft | 361 kts | 191° |
| 2026-05-08 08:52 | 42.54502 | 17.38208 | 30315 ft | 359 kts | 191° |
| 2026-05-08 08:52 | 42.52069 | 17.37675 | 29943 ft | 358 kts | 191° |
| 2026-05-08 08:52 | 42.49615 | 17.37137 | 29529 ft | 356 kts | 191° |
| 2026-05-08 08:53 | 42.47179 | 17.36603 | 29150 ft | 353 kts | 190° |
| 2026-05-08 08:53 | 42.44764 | 17.36075 | 28777 ft | 351 kts | 190° |
| 2026-05-08 08:53 | 42.42362 | 17.35550 | 28412 ft | 348 kts | 190° |
| 2026-05-08 08:53 | 42.39982 | 17.35030 | 28054 ft | 345 kts | 190° |
| 2026-05-08 08:54 | 42.37619 | 17.34514 | 27701 ft | 343 kts | 190° |
| 2026-05-08 08:54 | 42.35272 | 17.34002 | 27352 ft | 340 kts | 191° |
| 2026-05-08 08:54 | 42.32940 | 17.33494 | 26999 ft | 338 kts | 191° |
| 2026-05-08 08:54 | 42.30626 | 17.32990 | 26652 ft | 336 kts | 191° |
| 2026-05-08 08:55 | 42.28324 | 17.32489 | 26304 ft | 334 kts | 190° |
| 2026-05-08 08:55 | 42.26036 | 17.31990 | 25967 ft | 332 kts | 191° |
| 2026-05-08 08:55 | 42.23762 | 17.31497 | 25628 ft | 330 kts | 190° |
| 2026-05-08 08:55 | 42.21494 | 17.31004 | 25280 ft | 329 kts | 191° |
| 2026-05-08 08:56 | 42.19241 | 17.30515 | 24940 ft | 328 kts | 191° |
| 2026-05-08 08:56 | 42.16997 | 17.30029 | 24606 ft | 326 kts | 190° |
| 2026-05-08 08:56 | 42.14757 | 17.29543 | 24266 ft | 325 kts | 191° |
| 2026-05-08 08:56 | 42.12525 | 17.29060 | 23922 ft | 325 kts | 191° |
| 2026-05-08 08:57 | 42.10297 | 17.28577 | 23561 ft | 324 kts | 191° |
| 2026-05-08 08:57 | 42.08102 | 17.28102 | 23181 ft | 323 kts | 190° |
| 2026-05-08 08:57 | 42.05890 | 17.27623 | 22806 ft | 321 kts | 190° |
| 2026-05-08 08:57 | 42.03691 | 17.27148 | 22458 ft | 319 kts | 190° |
| 2026-05-08 08:58 | 42.01506 | 17.26677 | 22138 ft | 317 kts | 190° |
| 2026-05-08 08:58 | 41.99336 | 17.26208 | 21787 ft | 315 kts | 190° |
| 2026-05-08 08:58 | 41.97182 | 17.25745 | 21474 ft | 312 kts | 191° |
| 2026-05-08 08:58 | 41.95038 | 17.25283 | 21142 ft | 311 kts | 191° |
| 2026-05-08 08:59 | 41.92922 | 17.24708 | 20798 ft | 310 kts | 198° |
| 2026-05-08 08:59 | 41.90918 | 17.23615 | 20289 ft | 314 kts | 206° |
| 2026-05-08 08:59 | 41.88928 | 17.22272 | 19654 ft | 324 kts | 207° |
| 2026-05-08 08:59 | 41.86923 | 17.20878 | 19277 ft | 324 kts | 207° |
| 2026-05-08 09:00 | 41.84918 | 17.19484 | 18916 ft | 324 kts | 207° |
| 2026-05-08 09:00 | 41.82919 | 17.18103 | 18587 ft | 323 kts | 207° |
| 2026-05-08 09:00 | 41.80925 | 17.16727 | 18234 ft | 322 kts | 207° |
| 2026-05-08 09:00 | 41.78936 | 17.15361 | 17860 ft | 321 kts | 206° |
| 2026-05-08 09:01 | 41.76954 | 17.14004 | 17504 ft | 319 kts | 206° |
| 2026-05-08 09:01 | 41.74985 | 17.12660 | 17168 ft | 317 kts | 206° |
| 2026-05-08 09:01 | 41.73029 | 17.11327 | 16856 ft | 314 kts | 206° |
| 2026-05-08 09:01 | 41.71085 | 17.10005 | 16527 ft | 312 kts | 206° |
| 2026-05-08 09:02 | 41.69152 | 17.08691 | 16193 ft | 311 kts | 205° |
| 2026-05-08 09:02 | 41.67228 | 17.07387 | 15874 ft | 309 kts | 206° |
| 2026-05-08 09:02 | 41.65316 | 17.06090 | 15555 ft | 307 kts | 204° |
| 2026-05-08 09:02 | 41.63414 | 17.04800 | 15232 ft | 306 kts | 205° |
| 2026-05-08 09:03 | 41.61522 | 17.03521 | 14932 ft | 304 kts | 205° |
| 2026-05-08 09:03 | 41.59641 | 17.02248 | 14619 ft | 302 kts | 204° |
| 2026-05-08 09:03 | 41.57770 | 17.00983 | 14312 ft | 301 kts | 205° |
| 2026-05-08 09:03 | 41.55904 | 16.99721 | 13998 ft | 300 kts | 205° |
| 2026-05-08 09:04 | 41.54040 | 16.98462 | 13650 ft | 300 kts | 204° |
| 2026-05-08 09:04 | 41.52183 | 16.97210 | 13311 ft | 298 kts | 204° |
| 2026-05-08 09:04 | 41.50336 | 16.95962 | 13007 ft | 296 kts | 203° |
| 2026-05-08 09:04 | 41.48494 | 16.94721 | 12676 ft | 298 kts | 205° |
| 2026-05-08 09:05 | 41.46643 | 16.93477 | 12366 ft | 298 kts | 204° |
| 2026-05-08 09:05 | 41.44784 | 16.92233 | 12019 ft | 299 kts | 204° |
| 2026-05-08 09:05 | 41.42935 | 16.90985 | 11693 ft | 296 kts | 203° |
| 2026-05-08 09:05 | 41.41106 | 16.89751 | 11397 ft | 293 kts | 205° |
| 2026-05-08 09:06 | 41.39289 | 16.88527 | 11132 ft | 293 kts | 203° |
| 2026-05-08 09:06 | 41.37479 | 16.87316 | 10798 ft | 296 kts | 204° |
| 2026-05-08 09:06 | 41.35629 | 16.86079 | 10478 ft | 299 kts | 204° |
| 2026-05-08 09:06 | 41.33774 | 16.84825 | 10154 ft | 297 kts | 205° |
| 2026-05-08 09:07 | 41.31972 | 16.83608 | 10011 ft | 286 kts | 205° |
| 2026-05-08 09:07 | 41.30186 | 16.82420 | 9895 ft | 285 kts | 208° |
| 2026-05-08 09:07 | 41.28654 | 16.80724 | 9412 ft | 299 kts | 233° |
| 2026-05-08 09:07 | 41.27582 | 16.78330 | 9045 ft | 306 kts | 235° |
| 2026-05-08 09:08 | 41.26478 | 16.75874 | 8862 ft | 309 kts | 237° |
| 2026-05-08 09:08 | 41.25472 | 16.73325 | 8450 ft | 312 kts | 244° |
| 2026-05-08 09:08 | 41.24493 | 16.70768 | 8064 ft | 309 kts | 236° |
| 2026-05-08 09:08 | 41.23443 | 16.68303 | 7802 ft | 303 kts | 244° |
| 2026-05-08 09:09 | 41.22507 | 16.65786 | 7458 ft | 301 kts | 225° |
| 2026-05-08 09:09 | 41.21262 | 16.63648 | 7221 ft | 293 kts | 239° |
| 2026-05-08 09:09 | 41.20320 | 16.61312 | 6976 ft | 282 kts | 244° |
| 2026-05-08 09:09 | 41.19631 | 16.58945 | 6773 ft | 268 kts | 248° |
| 2026-05-08 09:10 | 41.19020 | 16.56656 | 6516 ft | 258 kts | 248° |
| 2026-05-08 09:10 | 41.18621 | 16.55188 | 6370 ft | 252 kts | 248° |
| 2026-05-08 09:10 | 41.18023 | 16.53043 | 6133 ft | 243 kts | 246° |
| 2026-05-08 09:10 | 41.17438 | 16.50989 | 5956 ft | 232 kts | 246° |
| 2026-05-08 09:11 | 41.16869 | 16.49017 | 5860 ft | 227 kts | 246° |
| 2026-05-08 09:11 | 41.16306 | 16.47069 | 5729 ft | 225 kts | 245° |
| 2026-05-08 09:11 | 41.15754 | 16.45172 | 5636 ft | 216 kts | 245° |
| 2026-05-08 09:11 | 41.14911 | 16.43633 | 5492 ft | 203 kts | 209° |
| 2026-05-08 09:12 | 41.13598 | 16.43083 | 5344 ft | 199 kts | 180° |
| 2026-05-08 09:12 | 41.12258 | 16.43376 | 5201 ft | 195 kts | 155° |
| 2026-05-08 09:12 | 41.10993 | 16.44043 | 4991 ft | 197 kts | 158° |
| 2026-05-08 09:12 | 41.09695 | 16.44586 | 4757 ft | 191 kts | 158° |
| 2026-05-08 09:13 | 41.08481 | 16.45190 | 4551 ft | 182 kts | 156° |
| 2026-05-08 09:13 | 41.07352 | 16.45831 | 4337 ft | 172 kts | 143° |
| 2026-05-08 09:13 | 41.06596 | 16.47022 | 4203 ft | 171 kts | 111° |
| 2026-05-08 09:13 | 41.06301 | 16.48526 | 4083 ft | 167 kts | 91° |
| 2026-05-08 09:14 | 41.06579 | 16.50001 | 3983 ft | 169 kts | 73° |
| 2026-05-08 09:14 | 41.06973 | 16.51499 | 3764 ft | 173 kts | 73° |
| 2026-05-08 09:14 | 41.07379 | 16.52997 | 3536 ft | 172 kts | 73° |
| 2026-05-08 09:14 | 41.07787 | 16.54469 | 3305 ft | 168 kts | 72° |
| 2026-05-08 09:15 | 41.08182 | 16.55880 | 3090 ft | 161 kts | 73° |
| 2026-05-08 09:15 | 41.08560 | 16.57228 | 2881 ft | 154 kts | 73° |
| 2026-05-08 09:15 | 41.08923 | 16.58524 | 2671 ft | 145 kts | 73° |
| 2026-05-08 09:15 | 41.09260 | 16.59724 | 2520 ft | 135 kts | 73° |
| 2026-05-08 09:16 | 41.09587 | 16.60896 | 2325 ft | 135 kts | 73° |
| 2026-05-08 09:16 | 41.09908 | 16.62041 | 2139 ft | 131 kts | 73° |
| 2026-05-08 09:16 | 41.10225 | 16.63173 | 1959 ft | 131 kts | 72° |
| 2026-05-08 09:16 | 41.10547 | 16.64321 | 1778 ft | 133 kts | 73° |
| 2026-05-08 09:17 | 41.10866 | 16.65459 | 1606 ft | 132 kts | 72° |
| 2026-05-08 09:17 | 41.11185 | 16.66590 | 1420 ft | 130 kts | 73° |
| 2026-05-08 09:17 | 41.11502 | 16.67721 | 1278 ft | 131 kts | 71° |
| 2026-05-08 09:17 | 41.11824 | 16.68864 | 1060 ft | 132 kts | 71° |
| 2026-05-08 09:18 | 41.12147 | 16.70014 | 893 ft | 132 kts | 72° |
| 2026-05-08 09:18 | 41.12475 | 16.71117 | 707 ft | 127 kts | 70° |
| 2026-05-08 09:18 | 41.12782 | 16.72237 | 511 ft | 132 kts | 73° |
| 2026-05-08 09:18 | 41.13094 | 16.73387 | 324 ft | 132 kts | 71° |
| 2026-05-08 09:19 | 41.13415 | 16.74503 | 153 ft | 128 kts | 70° |
| 2026-05-08 09:19 | 41.13688 | 16.75479 | 139 ft | 87 kts | 69° |
| 2026-05-08 09:19 | 41.13833 | 16.75994 | 136 ft | 46 kts | 69° |
| 2026-05-08 09:19 | 41.13932 | 16.76342 | 126 ft | 30 kts | 70° |
| 2026-05-08 09:20 | 41.13997 | 16.76569 | 123 ft | 20 kts | 71° |
| 2026-05-08 09:20 | 41.13968 | 16.76720 | 123 ft | 16 kts | 115° |
| 2026-05-08 09:20 | 41.13917 | 16.76817 | 123 ft | 11 kts | 165° |
| 2026-05-08 09:20 | 41.13863 | 16.76761 | 125 ft | 11 kts | 250° |
| 2026-05-08 09:21 | 41.13831 | 16.76649 | 132 ft | 16 kts | 250° |
| 2026-05-08 09:21 | 41.13784 | 16.76552 | 134 ft | 11 kts | 193° |
| 2026-05-08 09:22 | 41.13556 | 16.76457 | 135 ft | 0 kts | 159° |